Rechercher aéroport 
image banner adimage banner adimage banner ad
image banner ad

KDVO - Gnoss Field

Situé à Novato, United States

ICAO - DVO, IATA -

Données fournies par Airmate  

Information générale

Coordonnées: N38°8'37" W122°33'26"
Élévation : 4 feet MSL.
Variation magnétique : 16° East
Voir autres Aéroports à California

Données opérationnelles

Special qualification required
Heure actuelle UTC:
Heure actuelle locale:
Météo
METAR: KDVO 251535Z AUTO VRB03KT 10SM CLR 16/11 A2997 RMK AO2
Voir NOTAMs / SUP AIP / TFR affectant cet aéroport [VIEW]
Fréquences de communication: [VIEW]

Pistes:

Identifiant RWYQFULongueur (ft)Largeur (ft)SurfaceLDA (ft)
13150°330075ASPH
31330°330075ASPH

Coordonnées de l'aéroport

Adresse: Novato United States

Autres services d'aviation

Écoles de pilotage

Aeroclub Marin

Aeroclub Marin
aeroclubmarin@cs.com+1(415)898-4834

Scanlon Aviation, Llc

Scanlon Aviation, Llc

Vue satellite de KDVO